Time;durP1;ratioP1;P1;durP2;ratioP2;P2;SDS_P1;SDS_P2;PMS_P1;PMS_P2;Temp;Humidity;BMP_temperature;BMP_pressure;BME280_temperature;BME280_humidity;BME280_pressure;Samples;Min_cycle;Max_cycle;Signal;HPM_P1;HPM_P2
2022/04/07 00:02:02;;;;;;;2.90;2.70;;;;;;;;;;5073556;28;25031;-54
2022/04/07 00:04:27;;;;;;;2.30;2.10;;;;;;;;;;5070171;28;24423;-55
2022/04/07 00:06:52;;;;;;;3.10;2.50;;;;;;;;;;5070845;28;24415;-54
2022/04/07 00:09:17;;;;;;;2.97;2.60;;;;;;;;;;5072684;28;24429;-54
2022/04/07 00:11:42;;;;;;;2.60;2.30;;;;;;;;;;5076962;28;24555;-54
2022/04/07 00:14:08;;;;;;;4.25;2.67;;;;;;;;;;5081250;28;24407;-54
2022/04/07 00:16:33;;;;;;;2.90;2.60;;;;;;;;;;5071396;28;24419;-54
2022/04/07 00:18:59;;;;;;;2.60;2.40;;;;;;;;;;5078254;28;24934;-54
2022/04/07 00:21:24;;;;;;;2.90;2.50;;;;;;;;;;5076598;28;24416;-54
2022/04/07 00:23:53;;;;;;;2.80;2.50;;;;;;;;;;5068812;28;24438;-54
2022/04/07 00:26:18;;;;;;;2.38;2.20;;;;;;;;;;5080034;28;24410;-54
2022/04/07 00:28:43;;;;;;;2.53;2.33;;;;;;;;;;5071750;28;24521;-54
2022/04/07 00:31:11;;;;;;;2.50;2.30;;;;;;;;;;5077512;28;24995;-54
2022/04/07 00:33:36;;;;;;;3.53;2.67;;;;;;;;;;5072803;28;24426;-54
2022/04/07 00:36:04;;;;;;;2.60;2.40;;;;;;;;;;5067853;28;24426;-54
2022/04/07 00:38:29;;;;;;;2.88;2.50;;;;;;;;;;5084135;28;24415;-54
2022/04/07 00:40:54;;;;;;;3.10;2.38;;;;;;;;;;5066698;28;24509;-54
2022/04/07 00:43:29;;;;;;;2.65;2.45;;;;;;;;;;5077133;28;24980;-54
2022/04/07 00:45:54;;;;;;;3.95;2.30;;;;;;;;;;5078418;28;24417;-55
2022/04/07 00:48:19;;;;;;;2.80;2.50;;;;;;;;;;5076587;28;24418;-54
2022/04/07 00:50:46;;;;;;;3.85;2.60;;;;;;;;;;5069334;28;24829;-54
2022/04/07 00:53:11;;;;;;;3.05;2.70;;;;;;;;;;5072532;28;24994;-54
2022/04/07 00:55:36;;;;;;;2.40;2.20;;;;;;;;;;5075690;28;24426;-54
2022/04/07 00:58:02;;;;;;;3.70;2.90;;;;;;;;;;5078873;28;24968;-54
2022/04/07 01:00:27;;;;;;;3.55;2.50;;;;;;;;;;5075190;28;24983;-54
2022/04/07 01:02:52;;;;;;;3.05;2.40;;;;;;;;;;5073437;28;24430;-54
2022/04/07 01:05:20;;;;;;;3.97;2.80;;;;;;;;;;5072048;28;24803;-54
2022/04/07 01:07:46;;;;;;;2.95;2.60;;;;;;;;;;5078593;28;24465;-54
2022/04/07 01:10:11;;;;;;;3.20;2.40;;;;;;;;;;5083333;28;24779;-54
2022/04/07 01:12:37;;;;;;;2.50;2.30;;;;;;;;;;5074232;28;24441;-54
2022/04/07 01:15:06;;;;;;;2.70;2.37;;;;;;;;;;5072900;28;24975;-54
2022/04/07 01:17:31;;;;;;;2.33;2.13;;;;;;;;;;5074780;28;24959;-53
2022/04/07 01:19:56;;;;;;;2.70;2.50;;;;;;;;;;5079501;28;24495;-54
2022/04/07 01:22:22;;;;;;;2.60;2.40;;;;;;;;;;5076420;28;24414;-54
2022/04/07 01:24:47;;;;;;;2.60;2.40;;;;;;;;;;5084145;28;24521;-53
2022/04/07 01:27:13;;;;;;;2.67;2.47;;;;;;;;;;5075278;28;24434;-54
2022/04/07 01:29:38;;;;;;;2.83;2.63;;;;;;;;;;5072629;28;24529;-54
2022/04/07 01:32:08;;;;;;;3.33;2.90;;;;;;;;;;5072473;28;24426;-54
2022/04/07 01:34:33;;;;;;;3.10;2.20;;;;;;;;;;5066121;28;24468;-54
2022/04/07 01:36:58;;;;;;;2.50;2.30;;;;;;;;;;5066792;28;24773;-54
2022/04/07 01:39:27;;;;;;;3.07;2.40;;;;;;;;;;5083116;28;24427;-54
2022/04/07 01:41:53;;;;;;;3.03;2.20;;;;;;;;;;5080707;28;24509;-54
2022/04/07 01:44:19;;;;;;;2.33;2.13;;;;;;;;;;5074184;28;24785;-54
2022/04/07 01:46:46;;;;;;;2.60;2.40;;;;;;;;;;5074031;28;25000;-54
2022/04/07 01:49:11;;;;;;;2.45;2.10;;;;;;;;;;5081178;28;24512;-54
2022/04/07 01:51:37;;;;;;;2.67;2.38;;;;;;;;;;5069301;28;24567;-54
2022/04/07 01:54:02;;;;;;;2.67;2.30;;;;;;;;;;5068924;28;24421;-54
2022/04/07 01:56:27;;;;;;;2.40;2.20;;;;;;;;;;5068105;28;24422;-54
2022/04/07 01:58:53;;;;;;;2.47;2.28;;;;;;;;;;5081228;28;24986;-54
2022/04/07 02:01:18;;;;;;;2.30;2.10;;;;;;;;;;5079227;28;24895;-54
2022/04/07 02:03:45;;;;;;;3.13;2.10;;;;;;;;;;5065456;28;24433;-54
2022/04/07 02:06:14;;;;;;;2.45;2.25;;;;;;;;;;5077024;28;25007;-55
2022/04/07 02:08:40;;;;;;;2.13;1.92;;;;;;;;;;5078058;28;24426;-54
2022/04/07 02:11:05;;;;;;;2.60;2.40;;;;;;;;;;5079230;28;24422;-54
2022/04/07 02:13:33;;;;;;;2.10;1.90;;;;;;;;;;5068512;28;24488;-54
2022/04/07 02:15:59;;;;;;;2.17;2.00;;;;;;;;;;5070049;28;24501;-54
2022/04/07 02:18:24;;;;;;;2.40;2.20;;;;;;;;;;5069811;28;24525;-54
2022/04/07 02:20:49;;;;;;;2.60;2.00;;;;;;;;;;5070753;28;24418;-54
2022/04/07 02:23:14;;;;;;;2.50;2.08;;;;;;;;;;5073493;28;24445;-55
2022/04/07 02:25:39;;;;;;;2.50;1.73;;;;;;;;;;5071730;28;25118;-54
2022/04/07 02:28:04;;;;;;;2.58;2.20;;;;;;;;;;5079478;28;24430;-54
2022/04/07 02:30:29;;;;;;;2.30;2.10;;;;;;;;;;5077437;28;24407;-54
2022/04/07 02:32:54;;;;;;;2.20;2.00;;;;;;;;;;5073303;28;24559;-54
2022/04/07 02:35:20;;;;;;;2.42;1.90;;;;;;;;;;5067132;28;24472;-54
2022/04/07 02:37:45;;;;;;;2.10;1.90;;;;;;;;;;5074817;28;24475;-54
2022/04/07 02:40:10;;;;;;;2.97;1.90;;;;;;;;;;5067135;28;24485;-54
2022/04/07 02:42:35;;;;;;;3.00;2.07;;;;;;;;;;5070376;28;24414;-54
2022/04/07 02:45:01;;;;;;;1.93;1.83;;;;;;;;;;5068415;28;24466;-54
2022/04/07 02:47:33;;;;;;;2.70;2.10;;;;;;;;;;5068406;28;24509;-54
2022/04/07 02:49:58;;;;;;;2.08;1.98;;;;;;;;;;5066792;28;24482;-54
2022/04/07 02:52:23;;;;;;;2.73;2.30;;;;;;;;;;5067808;28;25428;-54
2022/04/07 02:54:49;;;;;;;1.70;1.60;;;;;;;;;;5067911;28;25003;-53
2022/04/07 02:57:14;;;;;;;1.90;1.70;;;;;;;;;;5076787;28;24417;-54
2022/04/07 02:59:39;;;;;;;2.35;2.15;;;;;;;;;;5072808;28;24519;-54
2022/04/07 03:02:04;;;;;;;2.27;1.80;;;;;;;;;;5078678;28;24429;-54
2022/04/07 03:04:30;;;;;;;2.20;2.00;;;;;;;;;;5079469;28;24461;-54
2022/04/07 03:06:55;;;;;;;2.10;1.95;;;;;;;;;;5081031;28;24411;-54
2022/04/07 03:09:20;;;;;;;1.75;1.65;;;;;;;;;;5071606;28;24446;-54
2022/04/07 03:11:48;;;;;;;2.60;1.83;;;;;;;;;;5070947;28;24944;-54
2022/04/07 03:14:14;;;;;;;2.13;1.92;;;;;;;;;;5073179;28;24423;-54
2022/04/07 03:16:39;;;;;;;2.10;1.90;;;;;;;;;;5069597;28;24480;-54
2022/04/07 03:19:05;;;;;;;2.00;1.90;;;;;;;;;;5074918;28;24453;-54
2022/04/07 03:21:30;;;;;;;2.00;1.90;;;;;;;;;;5088709;28;25007;-54
2022/04/07 03:23:55;;;;;;;2.40;2.10;;;;;;;;;;5074390;28;24534;-54
2022/04/07 03:26:20;;;;;;;2.20;2.10;;;;;;;;;;5072022;28;24433;-54
2022/04/07 03:28:45;;;;;;;1.90;1.80;;;;;;;;;;5073297;28;24820;-54
2022/04/07 03:31:10;;;;;;;3.40;2.23;;;;;;;;;;5079780;28;24407;-54
2022/04/07 03:33:36;;;;;;;2.20;2.00;;;;;;;;;;5073908;28;25129;-54
2022/04/07 03:36:03;;;;;;;2.00;1.80;;;;;;;;;;5076781;28;24424;-53
2022/04/07 03:38:28;;;;;;;1.80;1.70;;;;;;;;;;5073981;28;24417;-53
2022/04/07 03:40:53;;;;;;;2.63;2.43;;;;;;;;;;5084017;28;24418;-54
2022/04/07 03:43:18;;;;;;;2.20;2.00;;;;;;;;;;5075785;28;25092;-54
2022/04/07 03:45:44;;;;;;;1.93;1.83;;;;;;;;;;5084921;28;24413;-54
2022/04/07 03:48:09;;;;;;;2.67;2.10;;;;;;;;;;5086443;28;24434;-54
2022/04/07 03:50:34;;;;;;;2.30;2.10;;;;;;;;;;5084538;28;24417;-54
2022/04/07 03:52:59;;;;;;;2.03;1.85;;;;;;;;;;5073250;28;24422;-54
2022/04/07 03:55:24;;;;;;;2.13;1.90;;;;;;;;;;5076810;28;24948;-54
2022/04/07 03:57:49;;;;;;;2.73;2.03;;;;;;;;;;5078925;28;24449;-53
2022/04/07 04:00:16;;;;;;;2.30;2.10;;;;;;;;;;5071196;28;24410;-54
2022/04/07 04:02:41;;;;;;;2.88;2.10;;;;;;;;;;5075118;28;24437;-54
2022/04/07 04:05:06;;;;;;;2.47;2.10;;;;;;;;;;5074521;28;24953;-54
2022/04/07 04:07:31;;;;;;;2.30;1.90;;;;;;;;;;5081252;28;24468;-54
2022/04/07 04:09:57;;;;;;;2.30;2.10;;;;;;;;;;5079393;28;24450;-53
2022/04/07 04:12:22;;;;;;;2.83;2.50;;;;;;;;;;5079095;28;25010;-54
2022/04/07 04:14:47;;;;;;;3.08;2.40;;;;;;;;;;5078312;28;24466;-54
2022/04/07 04:17:12;;;;;;;2.50;2.30;;;;;;;;;;5071846;28;24746;-53
2022/04/07 04:19:38;;;;;;;2.08;1.98;;;;;;;;;;5077965;28;24991;-54
2022/04/07 04:22:03;;;;;;;2.13;1.80;;;;;;;;;;5074802;28;24884;-54
2022/04/07 04:24:28;;;;;;;2.47;2.27;;;;;;;;;;5076073;28;24426;-53
2022/04/07 04:26:53;;;;;;;2.10;1.90;;;;;;;;;;5069094;28;24595;-53
2022/04/07 04:29:18;;;;;;;2.40;1.87;;;;;;;;;;5070229;28;24461;-54
2022/04/07 04:31:43;;;;;;;2.20;1.80;;;;;;;;;;5076593;28;24502;-54
2022/04/07 04:34:09;;;;;;;2.22;2.03;;;;;;;;;;5072601;28;24429;-53
2022/04/07 04:36:35;;;;;;;2.70;2.17;;;;;;;;;;5078668;28;24711;-53
2022/04/07 04:39:00;;;;;;;2.20;2.00;;;;;;;;;;5073571;28;24430;-53
2022/04/07 04:41:25;;;;;;;2.10;1.90;;;;;;;;;;5071506;28;24433;-53
2022/04/07 04:43:50;;;;;;;2.73;1.90;;;;;;;;;;5072246;28;24508;-53
2022/04/07 04:46:15;;;;;;;1.80;1.70;;;;;;;;;;5072700;28;24407;-61
2022/04/07 04:48:40;;;;;;;1.85;1.75;;;;;;;;;;5069227;28;24770;-54
2022/04/07 04:51:06;;;;;;;2.35;2.10;;;;;;;;;;5072391;28;24440;-54
2022/04/07 04:53:31;;;;;;;1.90;1.80;;;;;;;;;;5081259;28;24461;-54
2022/04/07 04:55:56;;;;;;;2.50;1.90;;;;;;;;;;5072028;28;24423;-55
2022/04/07 04:58:21;;;;;;;1.97;1.77;;;;;;;;;;5071827;28;24442;-54
2022/04/07 05:00:46;;;;;;;1.70;1.60;;;;;;;;;;5072871;28;24472;-54
2022/04/07 05:03:11;;;;;;;2.70;2.00;;;;;;;;;;5085094;28;24983;-54
2022/04/07 05:05:37;;;;;;;2.27;1.87;;;;;;;;;;5085323;28;24421;-56
2022/04/07 05:08:02;;;;;;;2.03;1.73;;;;;;;;;;5083004;28;25995;-54
2022/04/07 05:10:27;;;;;;;1.70;1.60;;;;;;;;;;5064842;28;24998;-53
2022/04/07 05:12:52;;;;;;;1.80;1.70;;;;;;;;;;5065464;28;24422;-53
2022/04/07 05:15:17;;;;;;;1.80;1.50;;;;;;;;;;5072151;28;24772;-53
2022/04/07 05:17:49;;;;;;;1.80;1.45;;;;;;;;;;5077727;28;24488;-53
2022/04/07 05:20:14;;;;;;;2.05;1.50;;;;;;;;;;5067832;28;24969;-53
2022/04/07 05:22:39;;;;;;;1.83;1.57;;;;;;;;;;5078747;28;24510;-54
2022/04/07 05:25:05;;;;;;;1.70;1.50;;;;;;;;;;5071739;28;24983;-53
2022/04/07 05:27:32;;;;;;;2.13;1.80;;;;;;;;;;5068149;28;24402;-54
2022/04/07 05:29:58;;;;;;;1.50;1.40;;;;;;;;;;5068853;28;24538;-53
2022/04/07 05:32:23;;;;;;;1.80;1.30;;;;;;;;;;5067257;28;25059;-52
2022/04/07 05:34:48;;;;;;;2.55;1.50;;;;;;;;;;5067362;28;24387;-53
2022/04/07 05:37:13;;;;;;;1.50;1.40;;;;;;;;;;5067225;28;24706;-53
2022/04/07 05:39:38;;;;;;;1.38;1.27;;;;;;;;;;5067104;28;24397;-52
2022/04/07 05:42:04;;;;;;;1.40;1.30;;;;;;;;;;5068887;28;24453;-53
2022/04/07 05:44:29;;;;;;;1.80;1.70;;;;;;;;;;5067123;28;24406;-52
2022/04/07 05:46:54;;;;;;;1.30;1.20;;;;;;;;;;5066952;28;24524;-52
2022/04/07 05:49:20;;;;;;;2.00;1.30;;;;;;;;;;5069866;28;24495;-52
2022/04/07 05:51:47;;;;;;;1.30;1.20;;;;;;;;;;5085589;28;24410;-52
2022/04/07 05:54:16;;;;;;;1.58;1.20;;;;;;;;;;5086666;28;24445;-52
2022/04/07 05:56:41;;;;;;;2.60;1.20;;;;;;;;;;5086998;28;24853;-52
2022/04/07 05:59:06;;;;;;;1.30;1.20;;;;;;;;;;5085339;28;24495;-52
2022/04/07 06:01:31;;;;;;;1.60;1.10;;;;;;;;;;5072023;28;24423;-52
2022/04/07 06:03:56;;;;;;;1.20;1.20;;;;;;;;;;5069439;28;25047;-52
2022/04/07 06:06:21;;;;;;;1.30;1.20;;;;;;;;;;5071701;28;24496;-52
2022/04/07 06:08:47;;;;;;;1.20;1.10;;;;;;;;;;5067991;28;24940;-52
2022/04/07 06:11:13;;;;;;;1.27;1.17;;;;;;;;;;5070399;28;25033;-54
2022/04/07 06:13:39;;;;;;;1.30;1.20;;;;;;;;;;5071145;28;24522;-52
2022/04/07 06:16:04;;;;;;;1.80;1.70;;;;;;;;;;5076099;28;24497;-52
2022/04/07 06:18:30;;;;;;;1.43;1.20;;;;;;;;;;5078896;28;24773;-52
2022/04/07 06:20:55;;;;;;;1.50;1.40;;;;;;;;;;5077031;28;24979;-52
2022/04/07 06:23:20;;;;;;;1.10;1.10;;;;;;;;;;5075725;28;25013;-52
2022/04/07 06:25:45;;;;;;;1.40;1.30;;;;;;;;;;5071413;28;24491;-52
2022/04/07 06:28:10;;;;;;;1.50;1.10;;;;;;;;;;5069134;28;24434;-52
2022/04/07 06:30:36;;;;;;;1.30;1.20;;;;;;;;;;5067554;28;24405;-52
2022/04/07 06:33:01;;;;;;;1.10;1.10;;;;;;;;;;5066322;28;24513;-53
2022/04/07 06:35:26;;;;;;;1.30;1.20;;;;;;;;;;5088610;28;24797;-53
2022/04/07 06:37:53;;;;;;;0.90;0.90;;;;;;;;;;5079057;28;24415;-53
2022/04/07 06:40:24;;;;;;;1.40;1.10;;;;;;;;;;5067699;28;24407;-53
2022/04/07 06:42:50;;;;;;;1.30;1.20;;;;;;;;;;5068543;28;24419;-52
2022/04/07 06:45:16;;;;;;;1.10;1.00;;;;;;;;;;5064143;28;24409;-53
2022/04/07 06:47:41;;;;;;;1.20;0.83;;;;;;;;;;5064699;28;24476;-52
2022/04/07 06:50:10;;;;;;;1.30;1.20;;;;;;;;;;5085667;28;24413;-52
2022/04/07 06:52:35;;;;;;;1.30;1.20;;;;;;;;;;5085956;28;24375;-53
2022/04/07 06:55:00;;;;;;;2.88;1.30;;;;;;;;;;5086891;28;24408;-52
2022/04/07 06:57:25;;;;;;;1.40;1.30;;;;;;;;;;5086187;28;24430;-53
2022/04/07 06:59:51;;;;;;;1.20;1.10;;;;;;;;;;5086257;28;24390;-52
2022/04/07 07:02:16;;;;;;;1.90;1.00;;;;;;;;;;5084269;28;24756;-52
2022/04/07 07:04:41;;;;;;;1.30;1.10;;;;;;;;;;5085679;28;25028;-53
2022/04/07 07:07:06;;;;;;;1.20;1.00;;;;;;;;;;5086206;28;24561;-52
2022/04/07 07:09:31;;;;;;;1.40;1.10;;;;;;;;;;5086450;28;24375;-52
2022/04/07 07:11:56;;;;;;;0.90;0.80;;;;;;;;;;5085845;28;24912;-52
2022/04/07 07:14:22;;;;;;;1.30;0.90;;;;;;;;;;5086079;28;24465;-53
2022/04/07 07:16:48;;;;;;;1.50;1.40;;;;;;;;;;5085925;28;24378;-52
2022/04/07 07:19:15;;;;;;;1.10;1.00;;;;;;;;;;5085632;28;24401;-52
2022/04/07 07:21:40;;;;;;;1.05;1.05;;;;;;;;;;5078078;28;24474;-52
2022/04/07 07:24:05;;;;;;;1.40;1.00;;;;;;;;;;5081499;28;24980;-52
2022/04/07 07:26:30;;;;;;;0.90;0.90;;;;;;;;;;5065672;28;24418;-52
2022/04/07 07:28:56;;;;;;;0.85;0.85;;;;;;;;;;5065789;28;24827;-52
2022/04/07 07:31:21;;;;;;;2.27;0.90;;;;;;;;;;5065165;28;24944;-53
2022/04/07 07:33:46;;;;;;;0.93;0.93;;;;;;;;;;5065612;28;24402;-53
2022/04/07 07:36:11;;;;;;;0.90;0.90;;;;;;;;;;5080248;28;24417;-53
2022/04/07 07:38:36;;;;;;;0.90;0.90;;;;;;;;;;5067530;28;24419;-53
2022/04/07 07:41:01;;;;;;;0.90;0.90;;;;;;;;;;5065668;28;24383;-53
2022/04/07 07:43:26;;;;;;;0.90;0.90;;;;;;;;;;5066295;28;24949;-53
2022/04/07 07:45:52;;;;;;;1.20;1.10;;;;;;;;;;5075924;28;24417;-53
2022/04/07 07:48:18;;;;;;;1.00;0.90;;;;;;;;;;5089304;28;24455;-53
2022/04/07 07:50:45;;;;;;;0.80;0.80;;;;;;;;;;5090192;28;24465;-53
2022/04/07 07:53:11;;;;;;;0.90;0.90;;;;;;;;;;5089320;28;24466;-53
2022/04/07 07:55:37;;;;;;;0.80;0.80;;;;;;;;;;5087286;28;24960;-53
2022/04/07 07:58:03;;;;;;;1.60;0.80;;;;;;;;;;5089666;28;24386;-53
2022/04/07 08:00:28;;;;;;;0.90;0.67;;;;;;;;;;5089252;28;24975;-53
2022/04/07 08:02:53;;;;;;;0.80;0.80;;;;;;;;;;5088431;28;24398;-53
2022/04/07 08:05:18;;;;;;;0.70;0.60;;;;;;;;;;5089772;28;24790;-53
2022/04/07 08:07:44;;;;;;;1.33;0.80;;;;;;;;;;5087628;28;24406;-53
2022/04/07 08:10:09;;;;;;;0.70;0.70;;;;;;;;;;5089090;28;24868;-53
2022/04/07 08:12:35;;;;;;;2.00;0.70;;;;;;;;;;5089472;28;24394;-53
2022/04/07 08:15:00;;;;;;;0.80;0.80;;;;;;;;;;5089132;28;24779;-52
2022/04/07 08:17:25;;;;;;;1.50;0.77;;;;;;;;;;5087218;28;24521;-53
2022/04/07 08:19:50;;;;;;;2.20;0.80;;;;;;;;;;5089239;28;24432;-53
2022/04/07 08:22:16;;;;;;;0.60;0.60;;;;;;;;;;5088503;28;24379;-52
2022/04/07 08:24:41;;;;;;;1.13;0.80;;;;;;;;;;5087443;28;24512;-53
2022/04/07 08:27:06;;;;;;;1.10;0.70;;;;;;;;;;5089036;28;24390;-53
2022/04/07 08:29:32;;;;;;;3.17;0.90;;;;;;;;;;5088452;28;24418;-54
2022/04/07 08:31:57;;;;;;;0.57;0.52;;;;;;;;;;5089001;28;24485;-54
2022/04/07 08:34:22;;;;;;;0.80;0.70;;;;;;;;;;5086621;28;24418;-53
2022/04/07 08:36:48;;;;;;;1.00;0.50;;;;;;;;;;5088965;28;24810;-53
2022/04/07 08:39:13;;;;;;;0.60;0.60;;;;;;;;;;5088630;28;25224;-53
2022/04/07 08:41:39;;;;;;;0.70;0.70;;;;;;;;;;5088609;28;24404;-53
2022/04/07 08:44:04;;;;;;;1.65;0.70;;;;;;;;;;5088066;28;24418;-53
2022/04/07 08:46:30;;;;;;;0.50;0.50;;;;;;;;;;5087260;28;24815;-53
2022/04/07 08:48:56;;;;;;;1.50;0.70;;;;;;;;;;5088320;28;24388;-53
2022/04/07 08:51:21;;;;;;;0.80;0.80;;;;;;;;;;5088264;28;24875;-53
2022/04/07 08:53:46;;;;;;;0.60;0.60;;;;;;;;;;5088339;28;24468;-58
2022/04/07 08:56:12;;;;;;;1.00;0.70;;;;;;;;;;5085909;28;24422;-53
2022/04/07 08:58:38;;;;;;;0.60;0.50;;;;;;;;;;5088324;28;24568;-53
2022/04/07 09:01:04;;;;;;;1.00;0.60;;;;;;;;;;5088615;28;24501;-53
2022/04/07 09:03:29;;;;;;;0.70;0.70;;;;;;;;;;5087587;28;24421;-53
2022/04/07 09:06:01;;;;;;;0.80;0.63;;;;;;;;;;5086510;28;24811;-53
2022/04/07 09:08:30;;;;;;;2.33;1.00;;;;;;;;;;5088497;28;24748;-54
2022/04/07 09:10:55;;;;;;;0.80;0.80;;;;;;;;;;5088065;28;25125;-53
2022/04/07 09:13:20;;;;;;;2.00;0.90;;;;;;;;;;5087461;28;24513;-52
2022/04/07 09:15:46;;;;;;;0.70;0.70;;;;;;;;;;5087241;28;24734;-52
2022/04/07 09:18:11;;;;;;;1.00;0.60;;;;;;;;;;5086539;28;24580;-53
2022/04/07 09:20:42;;;;;;;0.80;0.70;;;;;;;;;;5088076;28;24493;-53
2022/04/07 09:23:10;;;;;;;1.10;0.60;;;;;;;;;;5087208;28;24490;-52
2022/04/07 09:25:35;;;;;;;1.30;0.70;;;;;;;;;;5087850;28;24390;-52
2022/04/07 09:28:00;;;;;;;0.50;0.50;;;;;;;;;;5085953;28;24808;-52
2022/04/07 09:30:26;;;;;;;0.90;0.60;;;;;;;;;;5076425;28;24410;-53
2022/04/07 09:32:51;;;;;;;1.50;0.50;;;;;;;;;;5067095;28;24937;-52
2022/04/07 09:35:16;;;;;;;0.50;0.50;;;;;;;;;;5067315;28;25006;-53
2022/04/07 09:37:42;;;;;;;0.60;0.57;;;;;;;;;;5067534;28;24398;-58
2022/04/07 09:40:15;;;;;;;1.70;0.50;;;;;;;;;;5068295;28;24425;-52
2022/04/07 09:42:44;;;;;;;0.68;0.60;;;;;;;;;;5087317;28;24431;-53
2022/04/07 09:45:12;;;;;;;0.60;0.60;;;;;;;;;;5087321;28;24437;-52
2022/04/07 09:47:38;;;;;;;0.87;0.70;;;;;;;;;;5087323;28;24720;-53
2022/04/07 09:50:04;;;;;;;3.75;0.90;;;;;;;;;;5071444;28;24410;-53
2022/04/07 09:52:30;;;;;;;2.50;0.60;;;;;;;;;;5066271;28;24402;-51
2022/04/07 09:54:58;;;;;;;1.00;0.70;;;;;;;;;;5067212;28;24631;-53
2022/04/07 09:57:25;;;;;;;0.60;0.50;;;;;;;;;;5067055;28;24438;-53
2022/04/07 09:59:50;;;;;;;0.50;0.50;;;;;;;;;;5076485;28;24425;-53
2022/04/07 10:02:16;;;;;;;1.80;0.60;;;;;;;;;;5086864;28;24928;-53
2022/04/07 10:04:42;;;;;;;2.70;0.70;;;;;;;;;;5085712;28;25272;-52
2022/04/07 10:07:11;;;;;;;0.80;0.60;;;;;;;;;;5087341;28;24409;-52
2022/04/07 10:09:37;;;;;;;0.50;0.47;;;;;;;;;;5085216;28;24411;-53
2022/04/07 10:12:03;;;;;;;2.10;0.50;;;;;;;;;;5086841;28;25068;-52
2022/04/07 10:14:29;;;;;;;2.20;0.50;;;;;;;;;;5086846;28;24394;-52
2022/04/07 10:16:55;;;;;;;1.00;0.47;;;;;;;;;;5087252;28;24513;-52
2022/04/07 10:19:22;;;;;;;2.38;0.60;;;;;;;;;;5086460;28;24417;-52
2022/04/07 10:21:55;;;;;;;0.70;0.60;;;;;;;;;;5085391;28;24530;-51
2022/04/07 10:24:33;;;;;;;1.15;0.50;;;;;;;;;;5086763;28;24418;-51
2022/04/07 10:27:02;;;;;;;1.90;0.70;;;;;;;;;;5086920;28;24402;-51
2022/04/07 10:29:27;;;;;;;0.60;0.60;;;;;;;;;;5086356;28;24472;-51
2022/04/07 10:32:22;;;;;;;0.80;0.60;;;;;;;;;;5085263;28;25120;-52
2022/04/07 10:34:54;;;;;;;1.95;0.50;;;;;;;;;;5073206;28;24513;-51
2022/04/07 10:37:38;;;;;;;0.70;0.65;;;;;;;;;;5086629;28;24416;-51
2022/04/07 10:40:22;;;;;;;0.50;0.50;;;;;;;;;;5086648;28;24489;-52
2022/04/07 10:43:06;;;;;;;0.70;0.60;;;;;;;;;;5084489;28;24434;-52
2022/04/07 10:45:32;;;;;;;2.30;0.82;;;;;;;;;;5086363;28;24401;-52
2022/04/07 10:48:16;;;;;;;1.52;0.63;;;;;;;;;;5086512;28;24383;-52
2022/04/07 10:50:48;;;;;;;0.70;0.60;;;;;;;;;;5086232;28;24761;-52
2022/04/07 10:53:20;;;;;;;0.60;0.50;;;;;;;;;;5083921;28;24417;-52
2022/04/07 10:55:52;;;;;;;1.00;0.60;;;;;;;;;;5086149;28;24411;-57
2022/04/07 10:58:19;;;;;;;1.00;0.50;;;;;;;;;;5086247;28;24398;-52
2022/04/07 11:00:44;;;;;;;0.65;0.60;;;;;;;;;;5086480;28;24421;-52
2022/04/07 11:03:13;;;;;;;0.67;0.50;;;;;;;;;;5078129;28;24431;-52
2022/04/07 11:05:51;;;;;;;0.77;0.50;;;;;;;;;;5066020;28;24393;-52
2022/04/07 11:08:20;;;;;;;0.60;0.60;;;;;;;;;;5066575;28;24424;-52
2022/04/07 11:10:48;;;;;;;0.85;0.60;;;;;;;;;;5065982;28;24506;-52
2022/04/07 11:13:14;;;;;;;1.48;0.60;;;;;;;;;;5070550;28;25017;-52
2022/04/07 11:15:55;;;;;;;1.20;0.50;;;;;;;;;;5086240;28;24414;-52
2022/04/07 11:18:36;;;;;;;0.60;0.60;;;;;;;;;;5086376;28;24448;-52
2022/04/07 11:21:11;;;;;;;1.00;0.60;;;;;;;;;;5090463;28;24765;-52
2022/04/07 11:23:49;;;;;;;2.30;0.70;;;;;;;;;;5088058;28;24975;-52
2022/04/07 11:26:27;;;;;;;1.00;0.80;;;;;;;;;;5090083;28;24401;-53
2022/04/07 11:28:59;;;;;;;1.08;0.70;;;;;;;;;;5090170;28;24479;-52
2022/04/07 11:31:38;;;;;;;0.90;0.80;;;;;;;;;;5090034;28;24404;-52
2022/04/07 11:34:23;;;;;;;0.80;0.80;;;;;;;;;;5087745;28;24949;-52
2022/04/07 11:36:48;;;;;;;1.40;1.00;;;;;;;;;;5090000;28;24418;-52
2022/04/07 11:39:14;;;;;;;1.50;0.90;;;;;;;;;;5069797;28;24979;-53
2022/04/07 11:41:42;;;;;;;3.55;0.88;;;;;;;;;;5075578;28;24578;-52
2022/04/07 11:44:09;;;;;;;0.80;0.80;;;;;;;;;;5089176;28;24784;-53
2022/04/07 11:46:34;;;;;;;0.93;0.80;;;;;;;;;;5089820;28;24386;-52
2022/04/07 11:49:00;;;;;;;0.60;0.60;;;;;;;;;;5077149;28;24440;-52
2022/04/07 11:51:25;;;;;;;0.93;0.73;;;;;;;;;;5069441;28;24977;-52
2022/04/07 11:53:54;;;;;;;0.67;0.60;;;;;;;;;;5069459;28;24403;-52
2022/04/07 11:56:20;;;;;;;1.42;0.70;;;;;;;;;;5069448;28;24440;-52
2022/04/07 11:58:55;;;;;;;2.85;0.90;;;;;;;;;;5068715;28;24487;-52
2022/04/07 12:01:20;;;;;;;1.90;0.80;;;;;;;;;;5069131;28;24757;-52
2022/04/07 12:03:50;;;;;;;1.73;0.70;;;;;;;;;;5068796;28;24642;-53
2022/04/07 12:06:15;;;;;;;1.02;0.70;;;;;;;;;;5069380;28;24422;-52
2022/04/07 12:08:40;;;;;;;0.82;0.40;;;;;;;;;;5069727;28;24838;-52
2022/04/07 12:11:06;;;;;;;0.60;0.60;;;;;;;;;;5088566;28;24406;-52
2022/04/07 12:13:31;;;;;;;0.60;0.50;;;;;;;;;;5089247;28;24451;-53
2022/04/07 12:15:57;;;;;;;0.50;0.50;;;;;;;;;;5074484;28;24419;-52
2022/04/07 12:18:29;;;;;;;0.50;0.50;;;;;;;;;;5072510;28;24415;-53
2022/04/07 12:20:58;;;;;;;0.50;0.47;;;;;;;;;;5089001;28;24405;-52
2022/04/07 12:23:28;;;;;;;0.80;0.60;;;;;;;;;;5088718;28;24422;-53
2022/04/07 12:25:57;;;;;;;0.70;0.60;;;;;;;;;;5089045;28;24389;-53
2022/04/07 12:28:22;;;;;;;1.10;0.50;;;;;;;;;;5087041;28;24984;-53
2022/04/07 12:30:48;;;;;;;0.90;0.60;;;;;;;;;;5088236;28;24437;-53
2022/04/07 12:33:32;;;;;;;1.70;0.50;;;;;;;;;;5088273;28;24418;-53
2022/04/07 12:35:57;;;;;;;1.63;0.70;;;;;;;;;;5089376;28;24426;-53
2022/04/07 12:38:23;;;;;;;3.40;0.68;;;;;;;;;;5088572;28;24464;-52
2022/04/07 12:40:49;;;;;;;0.80;0.70;;;;;;;;;;5087173;28;24477;-52
2022/04/07 12:43:14;;;;;;;1.50;0.55;;;;;;;;;;5088634;28;24394;-53
2022/04/07 12:45:58;;;;;;;1.10;0.60;;;;;;;;;;5088371;28;24386;-53
2022/04/07 12:48:23;;;;;;;2.20;0.70;;;;;;;;;;5088806;28;24486;-53
2022/04/07 12:50:48;;;;;;;2.80;0.70;;;;;;;;;;5086691;28;24525;-52
2022/04/07 12:53:29;;;;;;;1.98;0.70;;;;;;;;;;5088330;28;24409;-52
2022/04/07 12:55:54;;;;;;;0.80;0.50;;;;;;;;;;5088422;28;24390;-54
2022/04/07 12:58:25;;;;;;;0.53;0.53;;;;;;;;;;5088603;28;24393;-53
2022/04/07 13:00:57;;;;;;;0.93;0.60;;;;;;;;;;5085854;28;24601;-53
2022/04/07 13:03:22;;;;;;;1.53;0.63;;;;;;;;;;5087831;28;24459;-53
2022/04/07 13:05:48;;;;;;;0.60;0.60;;;;;;;;;;5088619;28;24389;-54
2022/04/07 13:08:14;;;;;;;1.17;0.70;;;;;;;;;;5088203;28;24764;-54
2022/04/07 13:10:40;;;;;;;0.80;0.70;;;;;;;;;;5084970;28;24414;-53
2022/04/07 13:13:05;;;;;;;0.90;0.57;;;;;;;;;;5067668;28;24967;-53
2022/04/07 13:15:31;;;;;;;0.80;0.70;;;;;;;;;;5067744;28;24390;-54
2022/04/07 13:17:56;;;;;;;1.50;0.70;;;;;;;;;;5067646;28;24486;-53
2022/04/07 13:20:21;;;;;;;0.90;0.70;;;;;;;;;;5067869;28;24449;-53
2022/04/07 13:22:46;;;;;;;0.60;0.60;;;;;;;;;;5083813;28;24566;-53
2022/04/07 13:25:12;;;;;;;0.87;0.70;;;;;;;;;;5082714;28;24419;-53
2022/04/07 13:27:37;;;;;;;0.80;0.50;;;;;;;;;;5067303;28;24497;-53
2022/04/07 13:30:03;;;;;;;0.70;0.50;;;;;;;;;;5067481;28;24393;-53
2022/04/07 13:32:28;;;;;;;0.77;0.70;;;;;;;;;;5082113;28;25009;-53
2022/04/07 13:34:54;;;;;;;0.60;0.60;;;;;;;;;;5087255;28;24390;-53
2022/04/07 13:37:19;;;;;;;1.50;0.50;;;;;;;;;;5085530;28;24702;-53
2022/04/07 13:39:45;;;;;;;0.60;0.50;;;;;;;;;;5087277;28;24594;-54
2022/04/07 13:42:10;;;;;;;1.13;0.50;;;;;;;;;;5086946;28;24997;-53
2022/04/07 13:44:36;;;;;;;1.90;0.60;;;;;;;;;;5087041;28;24414;-53
2022/04/07 13:47:01;;;;;;;1.10;0.50;;;;;;;;;;5085176;28;24599;-53
2022/04/07 13:49:26;;;;;;;0.90;0.50;;;;;;;;;;5087636;28;24916;-53
2022/04/07 13:51:52;;;;;;;0.53;0.50;;;;;;;;;;5087117;28;24394;-53
2022/04/07 13:54:17;;;;;;;0.60;0.50;;;;;;;;;;5086939;28;24413;-53
2022/04/07 13:56:42;;;;;;;0.80;0.50;;;;;;;;;;5085942;28;24407;-53
2022/04/07 13:59:08;;;;;;;1.70;0.52;;;;;;;;;;5083983;28;24417;-53
2022/04/07 14:01:34;;;;;;;2.50;0.80;;;;;;;;;;5086413;28;24792;-54
2022/04/07 14:03:59;;;;;;;0.50;0.50;;;;;;;;;;5068896;28;24422;-53
2022/04/07 14:06:24;;;;;;;0.80;0.60;;;;;;;;;;5065918;28;24425;-54
2022/04/07 14:08:49;;;;;;;1.20;0.70;;;;;;;;;;5079064;28;24589;-53
2022/04/07 14:11:15;;;;;;;0.60;0.60;;;;;;;;;;5087663;28;24396;-53
2022/04/07 14:13:41;;;;;;;0.90;0.70;;;;;;;;;;5086548;28;24501;-53
2022/04/07 14:16:06;;;;;;;0.68;0.60;;;;;;;;;;5086975;28;24402;-54
2022/04/07 14:18:31;;;;;;;1.50;0.60;;;;;;;;;;5085445;28;24425;-53
2022/04/07 14:20:56;;;;;;;1.92;0.60;;;;;;;;;;5078894;28;24950;-53
2022/04/07 14:23:21;;;;;;;0.55;0.55;;;;;;;;;;5066897;28;24431;-53
2022/04/07 14:25:46;;;;;;;0.70;0.50;;;;;;;;;;5066388;28;24402;-53
2022/04/07 14:28:12;;;;;;;0.50;0.50;;;;;;;;;;5066553;28;24497;-53
2022/04/07 14:30:37;;;;;;;1.00;0.70;;;;;;;;;;5083308;28;24459;-53
2022/04/07 14:33:03;;;;;;;0.60;0.53;;;;;;;;;;5065165;28;24831;-53
2022/04/07 14:35:30;;;;;;;0.80;0.57;;;;;;;;;;5062883;28;24966;-54
2022/04/07 14:37:58;;;;;;;0.88;0.60;;;;;;;;;;5070430;28;24786;-53
2022/04/07 14:40:23;;;;;;;1.00;0.70;;;;;;;;;;5074764;28;24438;-53